Time;durP1;ratioP1;P1;durP2;ratioP2;P2;SDS_P1;SDS_P2;PMS_P1;PMS_P2;Temp;Humidity;BMP_temperature;BMP_pressure;BME280_temperature;BME280_humidity;BME280_pressure;Samples;Min_cycle;Max_cycle;Signal;HPM_P1;HPM_P2
2022/12/07 00:00:04;;;;;;;13.10;8.10;;;6.00;99.90;;;;;;5018414;28;20516;-67
2022/12/07 00:02:31;;;;;;;12.38;6.25;;;6.10;99.90;;;;;;5026164;28;20037;-67
2022/12/07 00:04:56;;;;;;;11.77;7.75;;;6.10;99.90;;;;;;5029890;28;20443;-67
2022/12/07 00:07:22;;;;;;;13.63;6.85;;;6.10;99.90;;;;;;5030711;28;20085;-67
2022/12/07 00:09:47;;;;;;;12.82;7.07;;;6.00;99.90;;;;;;5029917;28;20437;-67
2022/12/07 00:12:13;;;;;;;12.25;7.28;;;6.00;99.90;;;;;;5029607;28;20037;-67
2022/12/07 00:14:39;;;;;;;11.02;7.43;;;6.00;99.90;;;;;;5029972;28;20033;-67
2022/12/07 00:17:04;;;;;;;9.52;6.47;;;6.10;99.90;;;;;;5026343;28;20037;-67
2022/12/07 00:19:31;;;;;;;12.20;7.38;;;6.10;99.90;;;;;;5045884;28;20551;-67
2022/12/07 00:21:57;;;;;;;11.40;7.55;;;6.00;99.90;;;;;;5030138;28;20033;-67
2022/12/07 00:24:22;;;;;;;10.13;6.85;;;6.00;99.90;;;;;;5031701;28;20404;-67
2022/12/07 00:26:48;;;;;;;11.45;7.20;;;5.90;99.90;;;;;;5044916;28;20113;-67
2022/12/07 00:29:21;;;;;;;8.77;6.35;;;5.90;99.90;;;;;;5030993;28;20041;-67
2022/12/07 00:31:48;;;;;;;9.75;6.13;;;5.90;99.90;;;;;;5020965;28;20095;-67
2022/12/07 00:34:17;;;;;;;11.00;7.20;;;5.90;99.90;;;;;;5049330;28;20029;-67
2022/12/07 00:36:42;;;;;;;10.95;6.75;;;5.90;99.90;;;;;;5033088;28;20112;-68
2022/12/07 00:39:08;;;;;;;10.48;6.88;;;5.90;99.90;;;;;;5034615;28;20164;-67
2022/12/07 00:41:34;;;;;;;9.77;6.65;;;5.90;99.90;;;;;;5032802;28;20580;-68
2022/12/07 00:44:00;;;;;;;9.05;5.88;;;5.80;99.90;;;;;;5035390;28;20034;-67
2022/12/07 00:46:26;;;;;;;9.32;7.00;;;5.70;99.90;;;;;;5032849;28;20029;-67
2022/12/07 00:48:52;;;;;;;10.48;7.53;;;5.70;99.90;;;;;;5035377;28;20072;-67
2022/12/07 00:51:21;;;;;;;9.88;6.65;;;5.80;99.90;;;;;;5031379;28;20031;-67
2022/12/07 00:53:47;;;;;;;8.35;5.78;;;5.80;99.90;;;;;;5034978;28;20018;-67
2022/12/07 00:56:16;;;;;;;9.25;6.53;;;5.70;99.90;;;;;;5032376;28;20053;-67
2022/12/07 00:58:42;;;;;;;9.95;6.55;;;5.70;99.90;;;;;;5035412;28;20033;-67
2022/12/07 01:01:09;;;;;;;8.93;6.20;;;5.70;99.90;;;;;;5032713;28;20041;-67
2022/12/07 01:03:35;;;;;;;10.43;6.75;;;5.60;99.90;;;;;;5033316;28;20031;-68
2022/12/07 01:06:01;;;;;;;12.75;6.75;;;5.60;99.90;;;;;;5030672;28;20021;-68
2022/12/07 01:08:28;;;;;;;9.93;7.05;;;5.60;99.90;;;;;;5032803;28;20048;-68
2022/12/07 01:11:03;;;;;;;10.00;6.60;;;5.60;99.90;;;;;;5034474;28;20026;-68
2022/12/07 01:13:29;;;;;;;;;;;5.50;99.90;;;;;;5034088;28;20029;-68
2022/12/07 01:16:01;;;;;;;7.75;5.90;;;5.50;99.90;;;;;;5034434;28;19940;-68
2022/12/07 01:18:29;;;;;;;9.32;6.30;;;5.50;99.90;;;;;;5032354;28;20033;-68
2022/12/07 01:21:07;;;;;;;9.70;5.50;;;5.40;99.90;;;;;;5034146;28;20041;-69
2022/12/07 01:23:34;;;;;;;10.32;6.15;;;5.40;99.90;;;;;;5032529;28;20116;-69
2022/12/07 01:26:03;;;;;;;8.30;5.20;;;5.40;99.90;;;;;;5033892;28;20037;-69
2022/12/07 01:28:29;;;;;;;9.40;6.05;;;5.50;99.90;;;;;;5031948;28;20033;-69
2022/12/07 01:31:00;;;;;;;9.23;6.20;;;5.40;99.90;;;;;;5034069;28;20502;-69
2022/12/07 01:33:31;;;;;;;9.55;6.18;;;5.50;99.90;;;;;;5032432;28;20025;-69
2022/12/07 01:36:02;;;;;;;12.15;6.32;;;5.50;99.90;;;;;;5033954;28;20025;-69
2022/12/07 01:38:29;;;;;;;11.45;7.03;;;5.50;99.90;;;;;;5032438;28;20145;-69
2022/12/07 01:40:56;;;;;;;12.60;7.72;;;5.40;99.90;;;;;;5032442;28;20029;-69
2022/12/07 01:43:23;;;;;;;11.55;7.72;;;5.40;99.90;;;;;;5029598;28;20079;-69
2022/12/07 01:45:49;;;;;;;9.75;6.80;;;5.50;99.90;;;;;;5021772;28;20392;-69
2022/12/07 01:48:20;;;;;;;10.60;6.65;;;5.50;99.90;;;;;;5032609;28;20029;-69
2022/12/07 01:50:50;;;;;;;9.30;6.38;;;5.50;99.90;;;;;;5032948;28;20324;-69
2022/12/07 01:53:17;;;;;;;8.32;6.05;;;5.60;99.90;;;;;;5030629;28;20037;-69
2022/12/07 01:55:46;;;;;;;11.68;7.95;;;5.50;99.90;;;;;;5027996;28;20480;-69
2022/12/07 01:58:13;;;;;;;8.88;5.68;;;5.50;99.90;;;;;;5030382;28;20087;-69
2022/12/07 02:00:39;;;;;;;9.35;6.30;;;5.50;99.90;;;;;;5032254;28;20048;-69
2022/12/07 02:03:13;;;;;;;9.48;6.35;;;5.50;99.90;;;;;;5032725;28;20112;-69
2022/12/07 02:05:41;;;;;;;10.00;5.47;;;5.60;99.90;;;;;;5013797;28;20034;-69
2022/12/07 02:08:11;;;;;;;9.63;5.93;;;5.50;99.90;;;;;;5031076;28;20049;-69
2022/12/07 02:10:37;;;;;;;9.88;6.13;;;5.60;99.90;;;;;;5033189;28;20492;-69
2022/12/07 02:13:12;;;;;;;9.63;5.90;;;5.50;99.90;;;;;;5030875;28;20025;-70
2022/12/07 02:15:41;;;;;;;11.98;7.38;;;5.50;99.90;;;;;;5031452;28;20126;-69
2022/12/07 02:18:14;;;;;;;10.23;6.55;;;5.50;99.90;;;;;;5032916;28;20080;-69
2022/12/07 02:21:08;;;;;;;8.50;5.57;;;5.60;99.90;;;;;;5013340;28;20026;-69
2022/12/07 02:24:11;;;;;;;9.75;6.38;;;5.60;99.90;;;;;;5028624;28;20044;-69
2022/12/07 02:26:45;;;;;;;11.50;7.47;;;5.60;99.90;;;;;;5023906;28;20530;-70
2022/12/07 02:29:14;;;;;;;10.48;6.13;;;5.60;99.90;;;;;;5022618;28;20065;-69
2022/12/07 02:32:00;;;;;;;7.90;5.30;;;5.50;99.90;;;;;;5032551;28;20183;-69
2022/12/07 02:34:55;;;;;;;6.65;4.40;;;5.50;99.90;;;;;;5029080;28;20036;-69
2022/12/07 02:37:29;;;;;;;8.73;5.47;;;5.50;99.90;;;;;;5027916;28;20028;-69
2022/12/07 02:40:22;;;;;;;7.20;4.90;;;5.50;99.90;;;;;;5032114;28;20296;-69
2022/12/07 02:43:19;;;;;;;8.35;5.13;;;5.50;99.90;;;;;;5030083;28;20030;-68
2022/12/07 02:45:47;;;;;;;6.72;5.05;;;5.50;99.90;;;;;;5029711;28;20052;-68
2022/12/07 02:48:16;;;;;;;9.63;5.05;;;5.50;99.90;;;;;;5031164;28;20034;-69
2022/12/07 02:50:50;;;;;;;7.20;4.90;;;5.50;99.90;;;;;;5032157;28;20576;-69
2022/12/07 02:53:39;;;;;;;7.15;4.88;;;5.50;99.90;;;;;;5031126;28;20030;-69
2022/12/07 02:56:18;;;;;;;7.03;4.85;;;5.50;99.90;;;;;;5031605;28;20025;-69
2022/12/07 02:59:21;;;;;;;8.10;4.72;;;5.40;99.90;;;;;;5032238;28;20026;-69
2022/12/07 03:01:48;;;;;;;9.15;4.90;;;5.40;99.90;;;;;;5030317;28;20519;-68
2022/12/07 03:05:02;;;;;;;9.20;4.95;;;5.40;99.90;;;;;;5030739;28;20026;-69
2022/12/07 03:07:46;;;;;;;6.47;4.30;;;5.40;99.90;;;;;;4979296;28;20511;-68
2022/12/07 03:10:33;;;;;;;7.43;5.15;;;5.30;99.90;;;;;;5030405;28;20106;-68
2022/12/07 03:13:19;;;;;;;8.00;5.22;;;5.30;99.90;;;;;;5030753;28;20381;-68
2022/12/07 03:16:02;;;;;;;7.00;4.93;;;5.40;99.90;;;;;;5029812;28;20038;-68
2022/12/07 03:18:32;;;;;;;6.28;4.50;;;5.30;99.90;;;;;;5030709;28;20377;-68
2022/12/07 03:21:04;;;;;;;6.43;4.82;;;5.30;99.90;;;;;;5031967;28;20511;-68
2022/12/07 03:23:34;;;;;;;8.35;5.38;;;5.30;99.90;;;;;;5023286;28;20388;-69
2022/12/07 03:26:02;;;;;;;6.70;4.78;;;5.30;99.90;;;;;;5032432;28;20025;-69
2022/12/07 03:28:32;;;;;;;7.22;4.88;;;5.30;99.90;;;;;;5030478;28;20506;-68
2022/12/07 03:31:12;;;;;;;7.63;5.53;;;5.30;99.90;;;;;;5031432;28;20083;-69
2022/12/07 03:34:02;;;;;;;7.28;4.80;;;5.20;99.90;;;;;;5025095;28;20484;-69
2022/12/07 03:36:45;;;;;;;8.13;5.15;;;5.30;99.90;;;;;;5031425;28;20384;-69
2022/12/07 03:39:31;;;;;;;7.93;5.28;;;5.30;99.90;;;;;;5030816;28;20488;-67
2022/12/07 03:42:00;;;;;;;7.93;5.60;;;5.30;99.90;;;;;;5031080;28;20068;-67
2022/12/07 03:44:26;;;;;;;7.88;5.57;;;5.30;99.90;;;;;;5031237;28;20539;-67
2022/12/07 03:47:26;;;;;;;7.45;4.78;;;5.30;99.90;;;;;;5030224;28;20037;-66
2022/12/07 03:49:58;;;;;;;7.00;4.90;;;5.30;99.90;;;;;;5015929;28;20518;-66
2022/12/07 03:52:45;;;;;;;7.35;5.07;;;5.30;99.90;;;;;;5030986;28;20056;-66
2022/12/07 03:55:36;;;;;;;7.28;5.25;;;5.30;99.90;;;;;;5031625;28;20496;-66
2022/12/07 03:58:10;;;;;;;7.32;5.22;;;5.30;99.90;;;;;;5030336;28;20059;-67
2022/12/07 04:00:36;;;;;;;9.25;5.90;;;5.30;99.90;;;;;;5031084;28;20045;-67
2022/12/07 04:03:02;;;;;;;8.68;6.15;;;5.20;99.90;;;;;;5029060;28;20030;-66
2022/12/07 04:05:28;;;;;;;8.02;5.72;;;5.30;99.90;;;;;;5029906;28;20022;-67
2022/12/07 04:07:54;;;;;;;8.52;5.90;;;5.30;99.90;;;;;;5032824;28;20045;-67
2022/12/07 04:10:20;;;;;;;8.23;5.47;;;5.30;99.90;;;;;;5035951;28;20112;-67
2022/12/07 04:12:46;;;;;;;10.13;5.68;;;5.30;99.90;;;;;;5034644;28;20080;-68
2022/12/07 04:15:12;;;;;;;8.10;5.47;;;5.30;99.90;;;;;;5032307;28;20033;-66
2022/12/07 04:17:38;;;;;;;11.63;6.20;;;5.30;99.90;;;;;;5033738;28;20025;-67
2022/12/07 04:20:05;;;;;;;11.35;7.05;;;5.30;99.90;;;;;;5022491;28;20646;-67
2022/12/07 04:22:33;;;;;;;9.18;6.53;;;5.30;99.90;;;;;;5024895;28;20383;-67
2022/12/07 04:24:59;;;;;;;9.07;6.18;;;5.30;99.90;;;;;;5035720;28;20033;-68
2022/12/07 04:27:25;;;;;;;9.68;6.35;;;5.40;99.90;;;;;;5049067;28;20037;-68
2022/12/07 04:29:50;;;;;;;9.68;6.25;;;5.30;99.90;;;;;;5027187;28;20022;-69
2022/12/07 04:32:16;;;;;;;9.65;7.28;;;5.30;99.90;;;;;;5022983;28;20044;-69
2022/12/07 04:34:41;;;;;;;11.65;7.43;;;5.30;99.90;;;;;;5034873;28;20049;-69
2022/12/07 04:37:07;;;;;;;10.73;7.72;;;5.40;99.90;;;;;;5033199;28;20108;-69
2022/12/07 04:39:34;;;;;;;10.27;7.25;;;5.40;99.90;;;;;;5032029;28;20087;-69
2022/12/07 04:42:00;;;;;;;13.27;8.77;;;5.30;99.90;;;;;;5031741;28;20553;-69
2022/12/07 04:44:27;;;;;;;11.88;7.45;;;5.30;99.90;;;;;;5032626;28;20037;-69
2022/12/07 04:46:54;;;;;;;13.80;8.63;;;5.30;99.90;;;;;;5028019;28;20037;-69
2022/12/07 04:49:20;;;;;;;13.35;7.70;;;5.30;99.90;;;;;;5031567;28;20416;-69
2022/12/07 04:51:46;;;;;;;14.23;9.65;;;5.30;99.90;;;;;;5032208;28;20029;-68
2022/12/07 04:54:13;;;;;;;14.10;8.98;;;5.30;99.90;;;;;;5034076;28;20492;-69
2022/12/07 04:56:39;;;;;;;11.77;8.50;;;5.30;99.90;;;;;;5033924;28;20060;-70
2022/12/07 04:59:05;;;;;;;13.95;8.65;;;5.30;99.90;;;;;;5033866;28;20053;-70
2022/12/07 05:01:31;;;;;;;14.90;10.02;;;5.30;99.90;;;;;;5034300;28;20041;-70
2022/12/07 05:03:57;;;;;;;16.38;9.82;;;5.30;99.90;;;;;;5033022;28;20033;-70
2022/12/07 05:06:23;;;;;;;13.52;9.15;;;5.30;99.90;;;;;;5032939;28;20029;-70
2022/12/07 05:08:49;;;;;;;17.83;10.07;;;5.40;99.90;;;;;;5034192;28;20044;-70
2022/12/07 05:14:00;;;;;;;14.75;9.45;;;5.40;99.90;;;;;;5028551;28;20036;-70
2022/12/07 05:16:26;;;;;;;14.68;9.85;;;5.40;99.90;;;;;;5033213;28;20029;-70
2022/12/07 05:18:51;;;;;;;15.30;10.57;;;5.40;99.90;;;;;;5030144;28;20022;-70
2022/12/07 05:21:17;;;;;;;16.67;10.40;;;5.40;99.90;;;;;;5033003;28;20017;-71
2022/12/07 05:23:43;;;;;;;15.68;10.20;;;5.40;99.90;;;;;;5031575;28;20029;-70
2022/12/07 05:26:09;;;;;;;18.30;10.77;;;5.40;99.90;;;;;;5034093;28;20032;-70
2022/12/07 05:28:34;;;;;;;17.13;11.30;;;5.40;99.90;;;;;;5032879;28;20424;-69
2022/12/07 05:31:00;;;;;;;16.63;10.45;;;5.40;99.90;;;;;;5033621;28;20021;-70
2022/12/07 05:33:25;;;;;;;18.98;11.73;;;5.50;99.90;;;;;;5030206;28;20037;-70
2022/12/07 05:35:51;;;;;;;16.17;10.75;;;5.50;99.90;;;;;;5033567;28;20034;-70
2022/12/07 05:38:16;;;;;;;21.38;11.43;;;5.50;99.90;;;;;;5032071;28;20095;-70
2022/12/07 05:40:42;;;;;;;16.75;11.45;;;5.50;99.90;;;;;;5033256;28;20037;-70
2022/12/07 05:43:08;;;;;;;16.85;10.73;;;5.50;99.90;;;;;;5027747;28;20484;-70
2022/12/07 05:45:34;;;;;;;18.33;11.75;;;5.50;99.90;;;;;;5045724;28;20051;-70
2022/12/07 05:47:59;;;;;;;18.90;12.10;;;5.50;99.90;;;;;;5031807;28;20577;-70
2022/12/07 05:50:25;;;;;;;20.55;12.18;;;5.50;99.90;;;;;;5032312;28;20029;-70
2022/12/07 05:52:51;;;;;;;20.30;13.52;;;5.60;99.90;;;;;;5031013;28;20837;-70
2022/12/07 05:55:16;;;;;;;22.90;12.88;;;5.60;99.90;;;;;;5032638;28;20049;-70
2022/12/07 05:59:22;;;;;;;19.70;12.30;;;5.60;99.90;;;;;;5031296;28;20447;-70
2022/12/07 06:00:27;;;;;;;18.15;12.10;;;5.60;99.90;;;;;;5032018;28;20045;-69
2022/12/07 06:02:53;;;;;;;20.33;12.77;;;5.70;99.90;;;;;;5031552;28;20052;-69
2022/12/07 06:05:19;;;;;;;20.30;12.48;;;5.70;99.90;;;;;;5031522;28;20025;-70
2022/12/07 06:07:44;;;;;;;17.83;11.75;;;5.70;99.90;;;;;;5032545;28;20029;-69
2022/12/07 06:10:10;;;;;;;18.02;10.70;;;5.70;99.90;;;;;;5032890;28;20488;-69
2022/12/07 06:12:38;;;;;;;21.27;12.85;;;5.80;99.90;;;;;;5031796;28;20052;-69
2022/12/07 06:15:04;;;;;;;20.15;12.35;;;5.70;99.90;;;;;;5024373;28;20037;-69
2022/12/07 06:17:29;;;;;;;21.70;12.73;;;5.80;99.90;;;;;;5032550;28;20049;-69
2022/12/07 06:19:55;;;;;;;21.05;12.43;;;5.80;99.90;;;;;;5032396;28;20112;-69
2022/12/07 06:22:20;;;;;;;20.40;13.13;;;5.80;99.90;;;;;;5030476;28;20087;-70
2022/12/07 06:24:46;;;;;;;19.98;12.73;;;5.80;99.90;;;;;;5030434;28;20098;-69
2022/12/07 06:27:12;;;;;;;21.50;12.80;;;5.90;99.90;;;;;;5022537;28;20034;-69
2022/12/07 06:29:38;;;;;;;22.15;12.95;;;5.90;99.90;;;;;;5046935;28;20362;-70
2022/12/07 06:32:04;;;;;;;18.20;12.43;;;5.90;99.90;;;;;;5032859;28;20083;-69
2022/12/07 06:34:30;;;;;;;22.33;13.73;;;5.90;99.90;;;;;;5027368;28;20034;-69
2022/12/07 06:36:56;;;;;;;23.42;13.73;;;5.90;99.90;;;;;;5032034;28;20107;-69
2022/12/07 06:39:27;;;;;;;25.48;13.77;;;5.90;99.90;;;;;;5031340;28;20037;-70
2022/12/07 06:41:53;;;;;;;20.17;12.73;;;5.90;99.90;;;;;;5030774;28;20124;-69
2022/12/07 06:44:20;;;;;;;19.25;12.60;;;6.00;99.90;;;;;;5031124;28;20563;-70
2022/12/07 06:46:46;;;;;;;22.27;12.57;;;6.00;99.90;;;;;;5028394;28;20463;-68
2022/12/07 06:49:12;;;;;;;19.27;12.02;;;5.90;99.90;;;;;;5021469;28;20389;-67
2022/12/07 06:51:40;;;;;;;19.55;11.50;;;6.00;99.90;;;;;;5028088;28;20026;-67
2022/12/07 06:54:10;;;;;;;19.63;12.85;;;6.00;99.90;;;;;;5029686;28;20037;-66
2022/12/07 06:56:36;;;;;;;18.33;11.32;;;6.00;99.90;;;;;;5028745;28;20029;-66
2022/12/07 06:59:02;;;;;;;23.00;13.25;;;6.00;99.90;;;;;;5022284;28;20442;-65
2022/12/07 07:01:28;;;;;;;21.10;12.75;;;6.10;99.90;;;;;;5041272;28;20033;-66
2022/12/07 07:03:54;;;;;;;20.35;13.35;;;6.10;99.90;;;;;;5030884;28;20515;-67
2022/12/07 07:06:19;;;;;;;27.15;14.48;;;6.10;99.90;;;;;;5031281;28;20025;-67
2022/12/07 07:08:45;;;;;;;23.17;13.55;;;6.10;99.90;;;;;;5030269;28;20037;-67
2022/12/07 07:11:10;;;;;;;26.05;13.57;;;6.20;99.90;;;;;;5030934;28;20038;-67
2022/12/07 07:13:36;;;;;;;21.23;12.93;;;6.10;99.90;;;;;;5029954;28;20045;-67
2022/12/07 07:16:02;;;;;;;23.55;13.30;;;6.10;99.90;;;;;;5028958;28;20068;-67
2022/12/07 07:18:28;;;;;;;19.83;11.82;;;6.20;99.90;;;;;;5023821;28;20560;-67
2022/12/07 07:20:54;;;;;;;21.65;13.18;;;6.20;99.90;;;;;;5031018;28;20440;-67
2022/12/07 07:23:21;;;;;;;22.65;13.57;;;6.30;99.90;;;;;;5025818;28;20021;-67
2022/12/07 07:25:47;;;;;;;20.88;13.10;;;6.30;99.90;;;;;;5030588;28;20480;-67
2022/12/07 07:28:13;;;;;;;20.95;12.80;;;6.30;99.90;;;;;;5027962;28;20088;-67
2022/12/07 07:30:38;;;;;;;19.50;12.27;;;6.20;99.90;;;;;;5030509;28;20025;-67
2022/12/07 07:33:04;;;;;;;19.80;12.30;;;6.20;99.90;;;;;;5017774;28;20060;-67
2022/12/07 07:35:31;;;;;;;22.60;12.98;;;6.30;99.90;;;;;;5018432;28;20505;-67
2022/12/07 07:37:57;;;;;;;19.67;12.35;;;6.30;99.90;;;;;;5029313;28;20049;-67
2022/12/07 07:40:23;;;;;;;20.45;12.05;;;6.30;99.90;;;;;;5027690;28;20021;-67
2022/12/07 07:42:52;;;;;;;15.57;10.35;;;6.30;99.90;;;;;;5027975;28;20098;-67
2022/12/07 07:45:19;;;;;;;16.92;9.55;;;6.30;99.90;;;;;;5030020;28;20025;-67
2022/12/07 07:47:44;;;;;;;17.25;9.95;;;6.30;99.90;;;;;;5029616;28;20052;-68
2022/12/07 07:50:10;;;;;;;18.48;11.07;;;6.20;99.90;;;;;;5023602;28;20104;-68
2022/12/07 07:52:36;;;;;;;16.20;10.20;;;6.30;99.90;;;;;;5028659;28;20116;-67
2022/12/07 07:55:01;;;;;;;18.63;11.18;;;6.30;99.90;;;;;;5031462;28;20022;-67
2022/12/07 07:57:27;;;;;;;15.50;10.13;;;6.30;99.90;;;;;;5028907;28;20468;-67
2022/12/07 07:59:53;;;;;;;15.68;10.10;;;6.20;99.90;;;;;;5029125;28;20057;-68
2022/12/07 08:02:20;;;;;;;17.65;9.55;;;6.20;99.90;;;;;;5027079;28;20343;-68
2022/12/07 08:04:46;;;;;;;15.43;10.18;;;6.30;99.90;;;;;;5031356;28;20029;-67
2022/12/07 08:07:13;;;;;;;16.63;9.90;;;6.30;99.90;;;;;;5029223;28;20457;-67
2022/12/07 08:09:38;;;;;;;13.15;9.00;;;6.30;99.90;;;;;;5029204;28;20056;-67
2022/12/07 08:12:05;;;;;;;15.43;8.65;;;6.30;99.90;;;;;;5029478;28;20068;-67
2022/12/07 08:14:30;;;;;;;15.85;9.70;;;6.30;99.90;;;;;;5030115;28;20045;-68
2022/12/07 08:16:56;;;;;;;14.32;8.52;;;6.30;99.90;;;;;;5028446;28;20030;-68
2022/12/07 08:19:22;;;;;;;11.48;7.72;;;6.30;99.90;;;;;;5029505;28;20068;-69
2022/12/07 08:21:48;;;;;;;11.25;6.80;;;6.20;99.90;;;;;;5031197;28;20484;-69
2022/12/07 08:24:14;;;;;;;13.93;8.15;;;6.30;99.90;;;;;;5026150;28;20041;-70
2022/12/07 08:26:40;;;;;;;12.23;7.60;;;6.20;99.90;;;;;;5031105;28;20033;-70
2022/12/07 08:29:06;;;;;;;11.68;6.95;;;6.30;99.90;;;;;;5027280;28;20146;-71
2022/12/07 08:31:31;;;;;;;10.02;6.97;;;6.30;99.90;;;;;;5029153;28;20029;-70
2022/12/07 08:33:57;;;;;;;13.38;6.35;;;6.30;99.90;;;;;;5027289;28;20030;-68
2022/12/07 08:36:23;;;;;;;10.25;6.65;;;6.30;99.90;;;;;;5027750;28;20041;-69
2022/12/07 08:38:49;;;;;;;10.43;5.93;;;6.30;99.90;;;;;;5024760;28;20543;-69
2022/12/07 08:41:15;;;;;;;10.25;5.60;;;6.30;99.90;;;;;;5029264;28;20116;-69
2022/12/07 08:43:41;;;;;;;9.77;6.28;;;6.30;99.90;;;;;;5020631;28;20520;-69
2022/12/07 08:46:13;;;;;;;7.45;5.35;;;6.40;99.90;;;;;;5023213;28;20107;-69
2022/12/07 08:49:03;;;;;;;6.28;3.75;;;6.40;99.90;;;;;;5015430;28;20108;-69
2022/12/07 08:51:28;;;;;;;6.05;3.97;;;6.30;99.90;;;;;;5013140;28;20060;-69
2022/12/07 08:53:56;;;;;;;7.93;4.20;;;6.30;99.90;;;;;;5032475;28;20484;-69
2022/12/07 08:56:22;;;;;;;7.47;3.78;;;6.40;99.90;;;;;;5029508;28;20112;-69
2022/12/07 08:58:48;;;;;;;5.43;3.97;;;6.40;99.90;;;;;;5034757;28;20532;-68
2022/12/07 09:01:14;;;;;;;6.18;3.00;;;6.40;99.90;;;;;;5042266;28;20048;-69
2022/12/07 09:03:40;;;;;;;4.68;2.78;;;6.40;99.90;;;;;;5053329;28;20619;-70
2022/12/07 09:06:06;;;;;;;5.15;3.10;;;6.40;99.90;;;;;;5031405;28;20029;-69
2022/12/07 09:08:37;;;;;;;6.00;3.10;;;6.50;99.90;;;;;;5031468;28;20556;-69
2022/12/07 09:11:03;;;;;;;5.43;2.67;;;6.50;99.90;;;;;;5033189;28;20037;-69
2022/12/07 09:13:29;;;;;;;4.88;2.80;;;6.50;99.90;;;;;;5033019;28;20583;-69
2022/12/07 09:15:54;;;;;;;4.13;2.22;;;6.50;99.90;;;;;;5033350;28;20213;-70
2022/12/07 09:18:20;;;;;;;3.33;2.33;;;6.50;99.90;;;;;;5033598;28;20388;-69
2022/12/07 09:20:45;;;;;;;6.13;2.67;;;6.50;99.90;;;;;;5033363;28;20384;-68
2022/12/07 09:23:11;;;;;;;3.40;2.10;;;6.50;99.90;;;;;;5031168;28;20392;-69
2022/12/07 09:25:37;;;;;;;3.70;2.03;;;6.50;99.30;;;;;;5024429;28;20036;-68
2022/12/07 09:28:02;;;;;;;3.13;2.20;;;6.40;99.20;;;;;;5023185;28;20049;-68
2022/12/07 09:30:28;;;;;;;3.33;2.20;;;6.40;99.10;;;;;;5031678;28;20025;-69
2022/12/07 09:32:56;;;;;;;5.65;2.67;;;6.40;98.60;;;;;;5033430;28;20113;-69
2022/12/07 09:35:22;;;;;;;3.33;2.20;;;6.30;98.40;;;;;;5028966;28;20032;-68
2022/12/07 09:37:48;;;;;;;5.20;2.35;;;6.20;98.70;;;;;;5038486;28;20060;-68
2022/12/07 09:40:16;;;;;;;4.00;2.63;;;6.20;98.70;;;;;;5030902;28;20461;-69
2022/12/07 09:42:46;;;;;;;4.47;2.85;;;6.20;98.70;;;;;;5044579;28;20078;-69
2022/12/07 09:45:16;;;;;;;3.55;2.35;;;6.20;98.80;;;;;;5024958;28;20025;-69
2022/12/07 09:47:42;;;;;;;3.10;1.90;;;6.10;98.30;;;;;;5031731;28;20120;-69
2022/12/07 09:50:14;;;;;;;4.25;2.88;;;6.10;98.60;;;;;;5030950;28;20163;-69
2022/12/07 09:52:41;;;;;;;3.63;2.35;;;6.10;98.60;;;;;;5027086;28;20045;-68
2022/12/07 09:55:25;;;;;;;3.55;2.50;;;6.00;98.70;;;;;;5029595;28;20025;-69
2022/12/07 09:57:53;;;;;;;5.10;3.00;;;6.00;98.50;;;;;;5028108;28;20061;-69
2022/12/07 10:00:21;;;;;;;4.43;2.38;;;6.10;98.70;;;;;;5031181;28;20053;-69
2022/12/07 10:02:56;;;;;;;3.30;2.30;;;6.00;98.40;;;;;;5032912;28;20022;-69
2022/12/07 10:05:27;;;;;;;3.08;2.33;;;5.90;98.20;;;;;;5029192;28;20032;-69
2022/12/07 10:07:53;;;;;;;3.85;2.40;;;5.90;98.30;;;;;;5048380;28;20076;-69
2022/12/07 10:10:29;;;;;;;6.82;3.33;;;5.90;98.10;;;;;;5028661;28;20071;-70
2022/12/07 10:13:05;;;;;;;3.10;2.28;;;5.80;97.80;;;;;;5031379;28;20033;-69
2022/12/07 10:15:53;;;;;;;6.20;2.25;;;5.80;98.00;;;;;;5024327;28;20330;-69
2022/12/07 10:18:41;;;;;;;3.58;2.28;;;5.80;98.20;;;;;;5032919;28;20033;-69
2022/12/07 10:21:20;;;;;;;2.92;2.20;;;5.70;98.20;;;;;;5031452;28;20036;-69
2022/12/07 10:24:06;;;;;;;4.95;2.40;;;5.70;98.30;;;;;;5020395;28;20036;-69
2022/12/07 10:26:38;;;;;;;3.17;1.95;;;5.80;98.30;;;;;;5028720;28;20488;-69
2022/12/07 10:29:21;;;;;;;5.55;3.28;;;5.80;98.40;;;;;;5032864;28;20401;-70
2022/12/07 10:31:58;;;;;;;3.60;2.47;;;5.80;98.70;;;;;;5026837;28;20033;-69
2022/12/07 10:34:29;;;;;;;4.10;2.25;;;5.90;98.40;;;;;;5026883;28;20056;-69
2022/12/07 10:37:14;;;;;;;4.70;2.35;;;5.90;98.30;;;;;;5029837;28;20125;-69
2022/12/07 10:39:42;;;;;;;3.13;2.75;;;5.80;98.20;;;;;;5030310;28;20071;-70
2022/12/07 10:42:26;;;;;;;4.15;2.50;;;5.80;98.40;;;;;;5028808;28;20087;-69
2022/12/07 10:45:15;;;;;;;4.25;3.20;;;5.80;98.40;;;;;;5028143;28;20033;-70
2022/12/07 10:47:59;;;;;;;4.13;2.72;;;5.80;98.50;;;;;;5028212;28;20041;-69
2022/12/07 10:51:02;;;;;;;3.47;2.47;;;5.80;98.50;;;;;;5029725;28;20033;-69
2022/12/07 10:53:47;;;;;;;5.32;3.30;;;5.80;98.60;;;;;;5026202;28;20021;-69
2022/12/07 10:56:44;;;;;;;3.80;2.67;;;5.80;98.60;;;;;;5023469;28;20105;-69
2022/12/07 10:59:45;;;;;;;6.00;3.08;;;5.90;98.60;;;;;;5020961;28;20246;-69
2022/12/07 11:02:16;;;;;;;4.38;3.00;;;5.90;98.60;;;;;;5013547;28;20480;-69
2022/12/07 11:04:59;;;;;;;4.82;3.55;;;5.90;98.60;;;;;;5031160;28;20033;-69
2022/12/07 11:08:16;;;;;;;3.95;2.92;;;5.90;98.60;;;;;;5019198;28;20025;-70
2022/12/07 11:11:07;;;;;;;3.38;2.90;;;5.90;98.70;;;;;;4949459;28;20035;-69
2022/12/07 11:14:12;;;;;;;4.30;3.22;;;6.00;98.70;;;;;;5024872;28;20036;-69
2022/12/07 11:16:46;;;;;;;5.75;3.70;;;6.00;98.80;;;;;;5026928;28;20033;-69
2022/12/07 11:20:00;;;;;;;4.13;3.28;;;6.00;98.80;;;;;;5029032;28;20025;-69
2022/12/07 11:23:03;;;;;;;5.35;3.25;;;6.00;98.80;;;;;;4941820;28;20035;-70
2022/12/07 11:25:50;;;;;;;5.13;4.05;;;6.10;98.90;;;;;;4946625;28;20499;-70
2022/12/07 11:28:25;;;;;;;5.72;3.60;;;6.10;98.90;;;;;;5015514;28;20474;-70
2022/12/07 11:31:04;;;;;;;4.65;3.13;;;6.20;99.00;;;;;;5028825;28;20029;-69
2022/12/07 11:33:44;;;;;;;5.78;3.80;;;6.30;98.90;;;;;;5028747;28;20025;-69
2022/12/07 11:36:43;;;;;;;5.35;3.88;;;6.30;98.90;;;;;;5029655;28;20068;-69
2022/12/07 11:39:33;;;;;;;5.15;3.70;;;6.30;98.90;;;;;;5030739;28;20270;-69
2022/12/07 11:42:25;;;;;;;5.07;3.38;;;6.30;98.80;;;;;;5030996;28;20123;-70
2022/12/07 11:44:57;;;;;;;6.85;3.60;;;6.40;98.80;;;;;;5016818;28;20041;-69
2022/12/07 11:47:40;;;;;;;5.13;3.45;;;6.40;98.80;;;;;;5030348;28;20607;-69
2022/12/07 11:50:21;;;;;;;5.88;3.17;;;6.40;98.80;;;;;;5028806;28;20120;-70
2022/12/07 11:52:53;;;;;;;5.03;3.35;;;6.40;98.70;;;;;;5046992;28;20037;-70
2022/12/07 11:55:26;;;;;;;5.78;3.35;;;6.50;98.70;;;;;;5029912;28;20057;-70
2022/12/07 11:58:03;;;;;;;7.28;4.07;;;6.50;98.70;;;;;;5029134;28;20042;-70
2022/12/07 12:00:28;;;;;;;8.25;3.78;;;6.50;98.70;;;;;;5030741;28;20049;-70
2022/12/07 12:03:11;;;;;;;6.53;4.25;;;6.60;98.80;;;;;;5027786;28;20038;-70
2022/12/07 12:05:38;;;;;;;6.20;3.80;;;6.60;98.80;;;;;;5017517;28;20044;-70
2022/12/07 12:08:19;;;;;;;6.95;4.20;;;6.70;98.80;;;;;;5030304;28;20040;-70
2022/12/07 12:10:57;;;;;;;5.22;4.13;;;6.70;98.80;;;;;;5036218;28;20025;-70
2022/12/07 12:13:23;;;;;;;6.95;3.80;;;6.70;98.90;;;;;;5030723;28;20029;-70
2022/12/07 12:16:01;;;;;;;8.52;3.45;;;6.80;98.90;;;;;;5028945;28;20037;-70
2022/12/07 12:18:38;;;;;;;6.53;3.20;;;6.80;98.70;;;;;;5030771;28;20026;-69
2022/12/07 12:21:09;;;;;;;8.52;3.50;;;6.80;98.70;;;;;;5029960;28;20033;-69
2022/12/07 12:23:45;;;;;;;6.35;3.22;;;6.90;98.70;;;;;;5031029;28;20091;-69
2022/12/07 12:26:23;;;;;;;4.45;2.88;;;6.90;98.70;;;;;;5023076;28;20033;-70
2022/12/07 12:29:01;;;;;;;5.60;3.50;;;6.90;98.60;;;;;;5031850;28;20116;-70
2022/12/07 12:31:27;;;;;;;5.93;3.15;;;6.90;98.60;;;;;;5032881;28;20128;-70
2022/12/07 12:33:56;;;;;;;5.05;2.85;;;6.90;98.60;;;;;;5033258;28;20033;-69
2022/12/07 12:36:32;;;;;;;4.93;2.85;;;6.90;98.60;;;;;;5025971;28;20030;-70
2022/12/07 12:39:10;;;;;;;6.63;3.25;;;7.00;98.50;;;;;;5034889;28;20021;-70
2022/12/07 12:42:05;;;;;;;5.28;3.17;;;7.00;98.30;;;;;;5030797;28;20029;-69
2022/12/07 12:44:32;;;;;;;3.75;2.40;;;6.90;98.40;;;;;;5015600;28;20045;-70
2022/12/07 12:47:34;;;;;;;6.57;3.15;;;7.00;98.50;;;;;;5026686;28;20041;-69
2022/12/07 12:50:21;;;;;;;5.50;3.22;;;7.00;98.50;;;;;;5034960;28;20037;-70
2022/12/07 12:52:52;;;;;;;5.13;2.80;;;7.00;98.50;;;;;;5033596;28;20388;-70
2022/12/07 12:55:21;;;;;;;4.65;2.63;;;7.00;98.40;;;;;;5032316;28;20036;-70
2022/12/07 12:58:19;;;;;;;5.32;2.72;;;7.10;98.50;;;;;;5034686;28;20026;-70
2022/12/07 13:00:46;;;;;;;8.75;3.03;;;7.10;98.50;;;;;;5032969;28;20079;-69
2022/12/07 13:03:31;;;;;;;4.10;2.42;;;7.10;98.40;;;;;;5034166;28;20031;-69
2022/12/07 13:06:26;;;;;;;5.32;2.50;;;7.10;98.40;;;;;;5026566;28;20070;-69
2022/12/07 13:08:54;;;;;;;10.35;3.17;;;7.10;98.40;;;;;;5033480;28;20037;-69
2022/12/07 13:11:35;;;;;;;6.43;3.03;;;7.10;98.40;;;;;;5033867;28;20032;-69
2022/12/07 13:14:40;;;;;;;8.65;3.08;;;7.10;98.40;;;;;;5033227;28;20041;-69
2022/12/07 13:17:32;;;;;;;5.22;2.70;;;7.10;98.40;;;;;;5032077;28;20056;-69